Time;durP1;ratioP1;P1;durP2;ratioP2;P2;SDS_P1;SDS_P2;PMS_P1;PMS_P2;Temp;Humidity;BMP_temperature;BMP_pressure;BME280_temperature;BME280_humidity;BME280_pressure;Samples;Min_cycle;Max_cycle;Signal;HPM_P1;HPM_P2
2023/03/17 00:00:47;;;;;;;3.30;1.60;;;;;;;-145.69;69.89;52416.66;5115609;28;20193;-82
2023/03/17 00:03:20;;;;;;;2.50;1.50;;;;;;;-145.69;68.87;52428.53;5115970;28;20284;-82
2023/03/17 00:05:47;;;;;;;3.10;1.70;;;;;;;-145.69;70.45;52420.63;5115665;28;20221;-81
2023/03/17 00:08:22;;;;;;;3.27;1.80;;;;;;;-145.69;74.60;52444.38;5115227;28;20193;-81
2023/03/17 00:10:51;;;;;;;2.30;1.80;;;;;;;-145.69;72.74;52400.81;5114645;28;20204;-81
2023/03/17 00:13:18;;;;;;;5.10;1.50;;;;;;;-145.69;73.41;52424.59;5115106;28;20212;-81
2023/03/17 00:15:46;;;;;;;2.70;1.70;;;;;;;-145.69;72.49;52438.44;5115399;28;20292;-80
2023/03/17 00:18:16;;;;;;;2.63;1.60;;;;;;;-145.69;70.12;52436.47;5115338;28;20201;-81
2023/03/17 00:20:43;;;;;;;3.03;1.53;;;;;;;-145.69;66.36;52418.63;5115293;28;20623;-81
2023/03/17 00:23:18;;;;;;;2.67;1.60;;;;;;;-145.69;66.30;52448.34;5114869;28;20193;-81
2023/03/17 00:25:47;;;;;;;2.10;1.67;;;;;;;-145.69;64.95;52454.28;5115229;28;20224;-81
2023/03/17 00:28:20;;;;;;;4.13;1.70;;;;;;;-145.69;66.58;52436.47;5114929;28;20705;-82
2023/03/17 00:30:47;;;;;;;2.57;1.70;;;;;;;-145.69;69.08;52454.28;5115799;28;20201;-82
2023/03/17 00:33:15;;;;;;;3.13;1.60;;;;;;;-145.69;73.21;52416.66;5116235;28;20204;-82
2023/03/17 00:35:44;;;;;;;3.63;1.53;;;;;;;-145.69;66.49;52386.97;5118030;28;20266;-82
2023/03/17 00:38:16;;;;;;;3.73;1.40;;;;;;;-145.69;68.14;52406.75;5118327;28;20201;-82
2023/03/17 00:40:46;;;;;;;3.40;1.80;;;;;;;-145.69;73.39;52440.44;5116081;28;20193;-81
2023/03/17 00:43:17;;;;;;;4.23;1.97;;;;;;;-145.69;74.62;52400.81;5115219;28;20233;-82
2023/03/17 00:45:45;;;;;;;2.50;1.53;;;;;;;-145.69;70.91;52432.50;5114631;28;20285;-81
2023/03/17 00:48:14;;;;;;;3.93;1.93;;;;;;;-145.69;74.31;52422.59;5114335;28;20204;-81
2023/03/17 00:50:41;;;;;;;2.33;1.73;;;;;;;-145.69;73.55;52442.41;5115009;28;20201;-81
2023/03/17 00:53:12;;;;;;;3.27;1.73;;;;;;;-145.69;75.54;52448.34;5114637;28;20205;-81
2023/03/17 00:55:39;;;;;;;5.90;1.77;;;;;;;-145.69;73.55;52416.66;5114631;28;20201;-81
2023/03/17 00:58:12;;;;;;;2.77;1.63;;;;;;;-145.69;70.39;52448.34;5114180;28;20284;-82
2023/03/17 01:00:40;;;;;;;1.60;1.40;;;;;;;-145.69;72.02;52416.66;5115582;28;20208;-82
2023/03/17 01:03:16;;;;;;;3.60;1.63;;;;;;;-145.69;74.86;52383.00;5113233;28;20197;-81
2023/03/17 01:05:43;;;;;;;2.70;1.70;;;;;;;-145.69;73.01;52436.47;5114487;28;20189;-81
2023/03/17 01:08:09;;;;;;;2.53;1.50;;;;;;;-145.69;75.50;52434.47;5114615;28;20200;-81
2023/03/17 01:10:36;;;;;;;4.40;1.83;;;;;;;-145.69;70.36;52412.69;5114944;28;20197;-82
2023/03/17 01:13:04;;;;;;;2.90;1.60;;;;;;;-145.69;68.61;52440.44;5114628;28;20190;-82
2023/03/17 01:15:31;;;;;;;5.70;1.57;;;;;;;-145.69;70.52;52412.69;5115268;28;20205;-82
2023/03/17 01:18:00;;;;;;;1.87;1.40;;;;;;;-145.69;71.88;52412.69;5115444;28;20212;-82
2023/03/17 01:20:29;;;;;;;1.80;1.43;;;;;;;-145.69;75.83;52434.47;5115356;28;20280;-82
2023/03/17 01:22:56;;;;;;;3.27;1.63;;;;;;;-145.69;69.31;52434.47;5114725;28;20224;-82
2023/03/17 01:25:26;;;;;;;2.43;1.30;;;;;;;-145.69;68.62;52412.69;5115711;28;20201;-82
2023/03/17 01:27:55;;;;;;;2.47;1.80;;;;;;;-145.69;73.44;52408.75;5096461;28;20233;-82
2023/03/17 01:30:27;;;;;;;3.00;1.63;;;;;;;-145.69;77.90;52402.78;5115158;28;20786;-82
2023/03/17 01:32:54;;;;;;;3.17;1.77;;;;;;;-145.69;71.62;52420.63;5115637;28;20329;-82
2023/03/17 01:35:24;;;;;;;1.80;1.30;;;;;;;-145.69;73.44;52424.59;5116469;28;20588;-83
2023/03/17 01:37:51;;;;;;;2.73;1.50;;;;;;;-145.69;72.57;52430.53;5116387;28;20193;-82
2023/03/17 01:40:21;;;;;;;2.43;1.40;;;;;;;-145.69;61.46;52428.53;5115649;28;20199;-82
2023/03/17 01:42:51;;;;;;;2.53;1.70;;;;;;;-145.69;72.73;52434.47;5113340;28;20229;-81
2023/03/17 01:45:55;;;;;;;3.90;1.50;;;;;;;-145.69;73.25;52400.81;5113627;28;20193;-82
2023/03/17 01:48:22;;;;;;;2.40;1.70;;;;;;;-145.69;70.11;52460.22;5113587;28;20192;-82
2023/03/17 01:50:52;;;;;;;1.87;1.60;;;;;;;-145.69;72.64;52430.53;5113071;28;20202;-80
2023/03/17 01:53:22;;;;;;;1.20;1.10;;;;;;;-145.69;72.73;52420.63;5113583;28;20669;-81
2023/03/17 01:55:51;;;;;;;2.37;1.60;;;;;;;-145.69;68.08;52408.75;5113568;28;20254;-82
2023/03/17 01:58:21;;;;;;;3.30;1.70;;;;;;;-145.69;68.08;52394.88;5113335;28;20212;-82
2023/03/17 02:00:48;;;;;;;2.05;1.40;;;;;;;-145.69;67.58;52396.84;5112480;28;20648;-81
2023/03/17 02:03:15;;;;;;;4.10;1.40;;;;;;;-145.69;71.61;52416.66;5113352;28;20197;-81
2023/03/17 02:05:42;;;;;;;1.50;1.30;;;;;;;-145.69;71.10;52428.53;5095607;28;20213;-82
2023/03/17 02:08:16;;;;;;;3.50;1.70;;;;;;;-145.69;70.91;52432.50;5113493;28;20260;-82
2023/03/17 02:10:45;;;;;;;2.47;1.40;;;;;;;-145.69;70.87;52412.69;5113462;28;20197;-81
2023/03/17 02:13:15;;;;;;;3.50;1.50;;;;;;;-145.69;71.03;52402.78;5113292;28;20193;-81
2023/03/17 02:15:44;;;;;;;6.00;1.67;;;;;;;-145.69;68.43;52414.69;5113529;28;20190;-81
2023/03/17 02:18:11;;;;;;;3.37;1.53;;;;;;;-145.69;66.36;52392.91;5111382;28;20632;-81
2023/03/17 02:21:14;;;;;;;2.00;1.50;;;;;;;-145.69;69.26;52402.78;5114663;28;20228;-83
2023/03/17 02:23:46;;;;;;;2.50;1.17;;;;;;;-145.69;71.76;52414.69;5114555;28;20193;-82
2023/03/17 02:26:12;;;;;;;2.87;1.40;;;;;;;-145.69;72.25;52408.75;5114401;28;20200;-82
2023/03/17 02:28:39;;;;;;;3.67;1.43;;;;;;;-145.69;70.97;52404.78;5113547;28;20204;-82
2023/03/17 02:31:07;;;;;;;1.97;1.50;;;;;;;-145.69;68.94;52398.84;5114415;28;20193;-82
2023/03/17 02:33:33;;;;;;;2.43;1.80;;;;;;;-145.69;67.75;52406.75;5116629;28;20400;-82
2023/03/17 02:36:00;;;;;;;2.07;1.40;;;;;;;-145.69;67.40;52381.00;5117853;28;20201;-81
2023/03/17 02:38:26;;;;;;;1.30;1.17;;;;;;;-145.69;70.00;52420.63;5116764;28;20197;-82
2023/03/17 02:40:54;;;;;;;1.83;1.50;;;;;;;-145.69;67.96;52418.63;5116672;28;20442;-82
2023/03/17 02:43:22;;;;;;;2.23;1.50;;;;;;;-145.69;69.45;52422.59;5117532;28;20332;-82
2023/03/17 02:45:56;;;;;;;3.07;1.50;;;;;;;-145.69;67.75;52432.50;5118420;28;20206;-81
2023/03/17 02:48:23;;;;;;;3.40;1.17;;;;;;;-145.69;68.89;52412.69;5118099;28;20233;-82
2023/03/17 02:50:49;;;;;;;2.50;1.60;;;;;;;-145.69;73.28;52404.78;5117699;28;20194;-82
2023/03/17 02:53:16;;;;;;;3.10;1.20;;;;;;;-145.69;70.97;52408.75;5118214;28;20200;-81
2023/03/17 02:55:42;;;;;;;2.77;1.43;;;;;;;-145.69;71.27;52424.59;5119887;28;20214;-82
2023/03/17 02:58:10;;;;;;;1.60;1.27;;;;;;;-145.69;70.18;52430.53;5119654;28;20202;-82
2023/03/17 03:00:37;;;;;;;2.40;1.40;;;;;;;-145.69;72.39;52420.63;5119323;28;20197;-83
2023/03/17 03:03:04;;;;;;;2.50;1.30;;;;;;;-145.69;67.08;52448.34;5119391;28;20193;-82
2023/03/17 03:05:30;;;;;;;1.57;1.20;;;;;;;-145.69;66.86;52416.66;5118367;28;20205;-82
2023/03/17 03:07:58;;;;;;;5.20;1.43;;;;;;;-145.69;68.89;52426.56;5117298;28;20228;-82
2023/03/17 03:10:24;;;;;;;2.03;1.13;;;;;;;-145.69;64.53;52398.84;5119235;28;20201;-82
2023/03/17 03:12:51;;;;;;;4.23;1.53;;;;;;;-145.69;64.36;52408.75;5118633;28;20640;-82
2023/03/17 03:15:20;;;;;;;2.93;1.47;;;;;;;-145.69;65.01;52408.75;5099779;28;20203;-81
2023/03/17 03:17:46;;;;;;;5.23;1.70;;;;;;;-145.69;64.74;52466.16;5118457;28;20227;-82
2023/03/17 03:20:13;;;;;;;4.23;1.43;;;;;;;-145.69;62.84;52388.94;5120111;28;20201;-82
2023/03/17 03:22:40;;;;;;;3.00;1.40;;;;;;;-145.69;66.04;52400.81;5117377;28;20284;-81
2023/03/17 03:25:07;;;;;;;2.87;1.27;;;;;;;-145.69;61.31;52416.66;5116234;28;20431;-81
2023/03/17 03:27:48;;;;;;;2.97;1.50;;;;;;;-145.69;62.84;52408.75;5116841;28;20225;-82
2023/03/17 03:30:15;;;;;;;1.30;1.17;;;;;;;-145.69;57.77;52392.91;5120060;28;20552;-83
2023/03/17 03:32:43;;;;;;;1.37;1.10;;;;;;;-145.69;59.47;52440.44;5118316;28;20212;-83
2023/03/17 03:35:10;;;;;;;2.63;1.30;;;;;;;-145.69;64.15;52402.78;5118354;28;20205;-82
2023/03/17 03:37:36;;;;;;;2.47;1.40;;;;;;;-145.69;63.69;52440.44;5117794;28;20197;-81
2023/03/17 03:40:06;;;;;;;5.80;1.63;;;;;;;-145.69;62.23;52416.66;5117795;28;20375;-82
2023/03/17 03:42:35;;;;;;;2.67;1.37;;;;;;;-145.69;63.34;52440.44;5117193;28;20689;-82
2023/03/17 03:45:01;;;;;;;4.73;1.43;;;;;;;-145.69;65.15;52416.66;5116715;28;20205;-82
2023/03/17 03:47:30;;;;;;;2.00;1.10;;;;;;;-145.69;63.04;52416.66;5096428;28;20225;-81
2023/03/17 03:49:57;;;;;;;2.03;1.30;;;;;;;-145.69;61.21;52404.78;5116657;28;20201;-82
2023/03/17 03:52:24;;;;;;;2.00;1.20;;;;;;;-145.69;61.92;52404.78;5116266;28;20679;-81
2023/03/17 03:54:50;;;;;;;1.30;1.20;;;;;;;-145.69;62.83;52416.66;5115716;28;20556;-81
2023/03/17 03:57:19;;;;;;;2.10;1.13;;;;;;;-145.69;61.38;52412.69;5116260;28;20644;-82
2023/03/17 03:59:48;;;;;;;2.27;1.23;;;;;;;-145.69;61.94;52432.50;5115977;28;20674;-82
2023/03/17 04:02:17;;;;;;;2.40;1.30;;;;;;;-145.69;55.05;52428.53;5098983;28;20201;-82
2023/03/17 04:04:49;;;;;;;3.20;1.20;;;;;;;-145.69;59.83;52400.81;5117397;28;20197;-82
2023/03/17 04:07:17;;;;;;;5.17;1.23;;;;;;;-145.69;61.71;52408.75;5115809;28;20225;-82
2023/03/17 04:09:46;;;;;;;1.33;1.00;;;;;;;-145.69;60.99;52412.69;5114812;28;20210;-81
2023/03/17 04:12:13;;;;;;;3.17;1.20;;;;;;;-145.69;62.19;52396.84;5094751;28;20209;-82
2023/03/17 04:14:39;;;;;;;3.27;1.30;;;;;;;-145.69;56.99;52444.38;5094863;28;20213;-81
2023/03/17 04:17:06;;;;;;;6.23;1.13;;;;;;;-145.69;58.91;52412.69;5107823;28;20203;-81
2023/03/17 04:19:32;;;;;;;1.33;1.10;;;;;;;-145.69;60.24;52410.72;5115155;28;20634;-81
2023/03/17 04:21:59;;;;;;;1.50;1.20;;;;;;;-145.69;58.18;52430.53;5114547;28;20575;-81
2023/03/17 04:24:28;;;;;;;2.40;1.30;;;;;;;-145.69;57.53;52416.66;5115093;28;20242;-81
2023/03/17 04:26:55;;;;;;;1.57;1.20;;;;;;;-145.69;56.46;52377.06;5115288;28;20209;-81
2023/03/17 04:29:23;;;;;;;1.93;1.20;;;;;;;-145.69;53.39;52400.81;5115260;28;20197;-81
2023/03/17 04:31:49;;;;;;;1.43;0.80;;;;;;;-145.69;53.17;52381.00;5116035;28;20209;-82
2023/03/17 04:34:19;;;;;;;1.40;0.87;;;;;;;-145.69;50.13;52428.53;5115588;28;20189;-81
2023/03/17 04:36:48;;;;;;;1.77;0.90;;;;;;;-145.69;53.25;52402.78;5114471;28;20648;-82
2023/03/17 04:39:15;;;;;;;1.20;0.93;;;;;;;-145.69;55.46;52448.34;5114370;28;20288;-82
2023/03/17 04:41:43;;;;;;;2.63;1.00;;;;;;;-145.69;56.76;52420.63;5116381;28;20313;-82
2023/03/17 04:44:10;;;;;;;1.67;0.90;;;;;;;-145.69;61.11;52394.88;5116315;28;20610;-82
2023/03/17 04:46:39;;;;;;;1.83;0.87;;;;;;;-145.69;61.94;52416.66;5114832;28;20198;-82
2023/03/17 04:49:05;;;;;;;1.03;0.93;;;;;;;-145.69;56.24;52414.69;5116154;28;20221;-81
2023/03/17 04:51:32;;;;;;;3.37;1.07;;;;;;;-145.69;58.99;52396.84;5115861;28;20197;-81
2023/03/17 04:53:59;;;;;;;2.07;1.00;;;;;;;-145.69;56.59;52424.59;5115596;28;20200;-82
2023/03/17 04:56:26;;;;;;;1.07;0.90;;;;;;;-145.69;53.47;52398.84;5116232;28;20194;-82
2023/03/17 04:58:54;;;;;;;2.80;1.10;;;;;;;-145.69;56.12;52440.44;5115879;28;20225;-82
2023/03/17 05:01:20;;;;;;;0.97;0.70;;;;;;;-145.69;52.44;52420.63;5115842;28;20656;-82
2023/03/17 05:03:49;;;;;;;1.53;0.90;;;;;;;-145.69;52.33;52424.59;5115024;28;20197;-81
2023/03/17 05:06:16;;;;;;;1.90;0.80;;;;;;;-145.69;53.51;52384.97;5108710;28;20194;-81
2023/03/17 05:08:46;;;;;;;1.23;0.90;;;;;;;-145.69;52.10;52440.44;5115225;28;20232;-82
2023/03/17 05:11:13;;;;;;;1.23;1.03;;;;;;;-145.69;51.53;52428.53;5115505;28;20235;-82
2023/03/17 05:13:40;;;;;;;1.43;1.00;;;;;;;-145.69;51.23;52444.38;5114840;28;20193;-82
2023/03/17 05:16:09;;;;;;;2.40;1.10;;;;;;;-145.69;50.37;52381.00;5117596;28;20201;-82
2023/03/17 05:18:38;;;;;;;1.60;1.00;;;;;;;-145.69;51.12;52416.66;5117241;28;20240;-82
2023/03/17 05:21:06;;;;;;;2.43;0.90;;;;;;;-145.69;53.07;52410.72;5118731;28;20201;-82
2023/03/17 05:23:33;;;;;;;1.17;0.77;;;;;;;-145.69;54.03;52412.69;5118082;28;20198;-83
2023/03/17 05:25:59;;;;;;;2.40;0.80;;;;;;;-145.69;52.92;52388.94;5117261;28;20584;-81
2023/03/17 05:28:29;;;;;;;1.53;1.00;;;;;;;-145.69;52.01;52438.44;5113524;28;20782;-80
2023/03/17 05:30:56;;;;;;;2.47;1.00;;;;;;;-145.69;53.79;52384.97;5114284;28;20288;-85
2023/03/17 05:33:24;;;;;;;4.07;1.00;;;;;;;-145.69;53.12;52410.72;5120323;28;20201;-83
2023/03/17 05:35:53;;;;;;;1.20;0.90;;;;;;;-145.69;51.93;52412.69;5119330;28;20717;-83
2023/03/17 05:38:20;;;;;;;2.40;0.90;;;;;;;-145.69;54.79;52416.66;5117336;28;20189;-82
2023/03/17 05:40:51;;;;;;;1.40;1.00;;;;;;;-145.69;55.36;52440.44;5118404;28;20197;-81
2023/03/17 05:43:21;;;;;;;3.03;0.90;;;;;;;-145.69;58.16;52404.78;5118201;28;20233;-82
2023/03/17 05:45:49;;;;;;;1.47;0.80;;;;;;;-145.69;60.78;52392.91;5117907;28;20205;-82
2023/03/17 05:48:17;;;;;;;3.17;0.93;;;;;;;-145.69;60.02;52416.66;5117819;28;20224;-81
2023/03/17 05:50:47;;;;;;;5.07;0.90;;;;;;;-145.69;64.01;52432.50;5117820;28;20197;-82
2023/03/17 05:53:14;;;;;;;1.60;1.10;;;;;;;-145.69;63.58;52438.44;5118990;28;20588;-82
2023/03/17 05:55:41;;;;;;;2.10;0.97;;;;;;;-145.69;68.17;52416.66;5119996;28;20232;-82
2023/03/17 05:58:11;;;;;;;2.40;1.10;;;;;;;-145.69;67.83;52390.91;5118840;28;20223;-82
2023/03/17 06:00:38;;;;;;;1.37;0.90;;;;;;;-145.69;70.39;52400.81;5118122;28;20708;-82
2023/03/17 06:03:06;;;;;;;1.47;0.90;;;;;;;-145.69;65.78;52396.84;5118284;28;20194;-82
2023/03/17 06:05:44;;;;;;;1.63;0.83;;;;;;;-145.69;58.85;52404.78;5117940;28;20275;-82
2023/03/17 06:08:12;;;;;;;1.90;0.90;;;;;;;-145.69;62.62;52377.06;5119666;28;20216;-82
2023/03/17 06:10:42;;;;;;;2.77;1.20;;;;;;;-145.69;60.76;52406.75;5122212;28;20202;-82
2023/03/17 06:13:09;;;;;;;2.13;0.90;;;;;;;-145.69;58.99;52392.91;5120654;28;20194;-82
2023/03/17 06:15:36;;;;;;;2.03;1.30;;;;;;;-145.69;64.15;52412.69;5120430;28;20269;-81
2023/03/17 06:18:04;;;;;;;2.47;1.00;;;;;;;-145.69;62.26;52388.94;5120283;28;20204;-81
2023/03/17 06:20:35;;;;;;;4.33;1.10;;;;;;;-145.69;61.50;52379.03;5117864;28;20247;-81
2023/03/17 06:23:02;;;;;;;4.00;1.27;;;;;;;-145.69;57.58;52432.50;5117836;28;20619;-81
2023/03/17 06:25:33;;;;;;;2.93;1.10;;;;;;;-145.69;58.78;52420.63;5117605;28;20198;-81
2023/03/17 06:28:01;;;;;;;1.73;1.13;;;;;;;-145.69;63.71;52396.84;5117152;28;20253;-81
2023/03/17 06:30:27;;;;;;;6.77;1.17;;;;;;;-145.69;59.83;52420.63;5117669;28;20205;-81
2023/03/17 06:32:54;;;;;;;1.50;1.10;;;;;;;-145.69;56.95;52388.94;5117631;28;20201;-82
2023/03/17 06:35:21;;;;;;;3.87;1.17;;;;;;;-145.69;59.28;52408.75;5117812;28;20282;-82
2023/03/17 06:37:49;;;;;;;1.30;0.97;;;;;;;-145.69;60.61;52404.78;5117095;28;20193;-81
2023/03/17 06:40:16;;;;;;;2.40;1.10;;;;;;;-145.69;62.67;52396.84;5117919;28;20202;-82
2023/03/17 06:42:46;;;;;;;2.13;0.90;;;;;;;-145.69;58.14;52426.56;5118610;28;20233;-82
2023/03/17 06:45:16;;;;;;;6.30;1.30;;;;;;;-145.69;59.92;52369.13;5117762;28;20297;-81
2023/03/17 06:47:42;;;;;;;1.87;1.00;;;;;;;-145.69;53.20;52388.94;5117418;28;20563;-81
2023/03/17 06:50:11;;;;;;;4.97;1.10;;;;;;;-145.69;51.14;52383.00;5117715;28;20292;-81
2023/03/17 06:52:38;;;;;;;2.30;1.00;;;;;;;-145.69;51.46;52377.06;5117221;28;20201;-81
2023/03/17 06:55:06;;;;;;;3.70;0.90;;;;;;;-145.69;49.66;52383.00;5117407;28;20250;-82
2023/03/17 06:57:35;;;;;;;0.80;0.80;;;;;;;-145.69;47.77;52392.91;5117729;28;20205;-81
2023/03/17 07:00:05;;;;;;;5.60;1.10;;;;;;;-145.69;55.75;52416.66;5117377;28;20216;-81
2023/03/17 07:02:32;;;;;;;1.83;0.90;;;;;;;-145.69;48.95;52363.19;5117742;28;20251;-81
2023/03/17 07:04:59;;;;;;;2.93;1.30;;;;;;;-145.69;47.52;52383.00;5118491;28;20621;-81
2023/03/17 07:07:26;;;;;;;3.77;1.07;;;;;;;-145.69;47.85;52369.13;5119840;28;20203;-81
2023/03/17 07:09:53;;;;;;;2.13;1.10;;;;;;;-145.69;51.87;52373.09;5117479;28;20225;-82
2023/03/17 07:12:20;;;;;;;1.07;0.83;;;;;;;-145.69;51.23;52386.97;5115229;28;20227;-83
2023/03/17 07:14:47;;;;;;;3.37;1.27;;;;;;;-145.69;53.30;52392.91;5118652;28;20281;-82
2023/03/17 07:17:15;;;;;;;1.30;1.00;;;;;;;-145.69;54.67;52373.09;5118597;28;20659;-82
2023/03/17 07:19:42;;;;;;;6.90;1.10;;;;;;;-145.69;52.34;52375.06;5117804;28;20555;-82
2023/03/17 07:22:09;;;;;;;2.83;0.77;;;;;;;-145.69;53.88;52377.06;5117839;28;20205;-82
2023/03/17 07:24:36;;;;;;;5.73;1.03;;;;;;;-145.69;54.98;52369.13;5117081;28;20201;-81
2023/03/17 07:27:04;;;;;;;2.23;1.07;;;;;;;-145.69;51.61;52383.00;5116130;28;20644;-82
2023/03/17 07:29:32;;;;;;;1.83;0.80;;;;;;;-145.69;54.47;52375.06;5118847;28;20225;-81
2023/03/17 07:31:59;;;;;;;6.17;1.20;;;;;;;-145.69;54.58;52367.16;5115546;28;20197;-81
2023/03/17 07:34:27;;;;;;;1.63;1.00;;;;;;;-145.69;48.83;52337.44;5119899;28;20202;-83
2023/03/17 07:36:53;;;;;;;4.27;1.00;;;;;;;-145.69;56.67;52365.16;5119318;28;20223;-83
2023/03/17 07:39:20;;;;;;;2.10;0.90;;;;;;;-145.69;54.31;52396.84;5119695;28;20197;-83
2023/03/17 07:41:51;;;;;;;3.87;1.10;;;;;;;-145.69;53.14;52381.00;5118930;28;20237;-82
2023/03/17 07:44:24;;;;;;;2.07;0.90;;;;;;;-145.69;56.95;52365.16;5118602;28;20202;-82
2023/03/17 07:46:51;;;;;;;4.13;1.10;;;;;;;-145.69;52.29;52359.22;5117901;28;20254;-83
2023/03/17 07:49:19;;;;;;;1.70;0.70;;;;;;;-145.69;51.53;52386.97;5119370;28;20703;-83
2023/03/17 07:51:47;;;;;;;2.53;0.97;;;;;;;-145.69;52.79;52365.16;5117837;28;20697;-82
2023/03/17 07:54:14;;;;;;;1.17;0.77;;;;;;;-145.69;52.80;52355.28;5119375;28;20221;-83
2023/03/17 07:56:44;;;;;;;1.40;0.80;;;;;;;-145.69;49.71;52319.63;5118627;28;20208;-83
2023/03/17 07:59:10;;;;;;;0.80;0.70;;;;;;;-145.69;46.92;52329.53;5118027;28;20236;-82
2023/03/17 08:01:38;;;;;;;2.40;0.90;;;;;;;-145.69;45.48;52333.47;5119684;28;20228;-82
2023/03/17 08:04:09;;;;;;;8.35;1.23;;;;;;;-145.69;46.94;52331.50;5118400;28;20197;-84
2023/03/17 08:06:36;;;;;;;7.43;0.90;;;;;;;-145.69;46.49;52317.66;5119578;28;20196;-82
2023/03/17 08:09:04;;;;;;;4.57;1.00;;;;;;;-145.69;47.42;52315.66;5116465;28;20265;-82
2023/03/17 08:11:33;;;;;;;1.98;0.90;;;;;;;-145.69;46.24;52285.97;5115936;28;20204;-83
2023/03/17 08:14:02;;;;;;;4.60;0.90;;;;;;;-145.69;46.54;52335.47;5115895;28;20274;-80
2023/03/17 08:16:29;;;;;;;0.90;0.70;;;;;;;-145.69;45.32;52361.22;5115291;28;20656;-83
2023/03/17 08:18:57;;;;;;;0.70;0.70;;;;;;;-145.69;44.68;52297.84;5116699;28;20277;-82
2023/03/17 08:21:24;;;;;;;1.13;0.80;;;;;;;-145.69;45.70;52299.81;5117940;28;20204;-81
2023/03/17 08:23:50;;;;;;;1.38;0.90;;;;;;;-145.69;48.40;52313.69;5117334;28;20204;-80
2023/03/17 08:26:19;;;;;;;1.13;0.75;;;;;;;-145.69;46.04;52289.91;5117930;28;20547;-80
2023/03/17 08:28:46;;;;;;;2.53;0.77;;;;;;;-145.69;45.11;52291.91;5116795;28;20229;-79
2023/03/17 08:31:15;;;;;;;2.95;1.02;;;;;;;-145.69;46.19;52295.84;5116970;28;20197;-82
2023/03/17 08:33:45;;;;;;;4.05;1.20;;;;;;;-145.69;45.88;52295.84;5115807;28;20201;-83
2023/03/17 08:36:15;;;;;;;1.48;0.63;;;;;;;-145.69;45.44;52317.66;5116845;28;20266;-82
2023/03/17 08:38:47;;;;;;;4.57;0.90;;;;;;;-145.69;45.70;52278.03;5109600;28;20284;-81
2023/03/17 08:41:17;;;;;;;0.85;0.60;;;;;;;-145.69;45.29;52287.94;5119195;28;20193;-80
2023/03/17 08:43:46;;;;;;;1.00;0.60;;;;;;;-145.69;43.23;52280.00;5118577;28;20189;-81
2023/03/17 08:46:22;;;;;;;0.70;0.57;;;;;;;-145.69;38.36;52317.66;5120268;28;20512;-83
2023/03/17 08:48:50;;;;;;;0.80;0.80;;;;;;;-145.69;38.39;52276.06;5117630;28;20221;-84
2023/03/17 08:51:18;;;;;;;5.38;0.88;;;;;;;-145.69;40.26;52278.03;5118076;28;20244;-83
2023/03/17 08:53:45;;;;;;;0.90;0.70;;;;;;;-145.69;38.52;52278.03;5114790;28;20210;-83
2023/03/17 08:56:13;;;;;;;2.70;0.70;;;;;;;-145.69;37.44;52254.28;5114155;28;20692;-83
2023/03/17 08:58:41;;;;;;;3.65;0.88;;;;;;;-145.69;38.27;52282.00;5115484;28;20651;-82
2023/03/17 09:01:10;;;;;;;0.90;0.63;;;;;;;-145.69;37.17;52291.91;5115951;28;20677;-82
2023/03/17 09:03:38;;;;;;;1.40;0.73;;;;;;;-145.69;40.29;52270.13;5115733;28;20197;-81
2023/03/17 09:06:06;;;;;;;2.90;0.60;;;;;;;-145.69;37.77;52270.13;5115585;28;20208;-82
2023/03/17 09:08:33;;;;;;;1.15;0.60;;;;;;;-145.69;35.24;52264.16;5115705;28;20601;-82
2023/03/17 09:11:02;;;;;;;1.90;0.55;;;;;;;-145.69;38.51;52268.13;5116208;28;20193;-81
2023/03/17 09:13:28;;;;;;;0.60;0.60;;;;;;;-145.69;34.53;52244.38;5118715;28;20227;-82
2023/03/17 09:15:55;;;;;;;2.25;0.50;;;;;;;-145.69;35.98;52262.19;5117257;28;20190;-81
2023/03/17 09:18:23;;;;;;;1.83;0.70;;;;;;;-145.69;35.54;52248.34;5115058;28;20198;-82
2023/03/17 09:20:50;;;;;;;1.00;0.55;;;;;;;-145.69;35.39;52250.31;5097999;28;20544;-84
2023/03/17 09:23:16;;;;;;;2.22;0.60;;;;;;;-145.69;34.60;52254.28;5119339;28;20666;-81
2023/03/17 09:25:43;;;;;;;0.93;0.70;;;;;;;-145.69;32.38;52238.44;5121058;28;20673;-82
2023/03/17 09:28:11;;;;;;;0.65;0.50;;;;;;;-145.69;32.31;52238.44;5120864;28;20232;-82
2023/03/17 09:30:41;;;;;;;0.93;0.70;;;;;;;-145.69;31.56;52230.50;5123493;28;20249;-81
2023/03/17 09:33:08;;;;;;;1.02;0.60;;;;;;;-145.69;32.69;52256.25;5120143;28;20648;-81
2023/03/17 09:35:44;;;;;;;2.72;0.73;;;;;;;-145.69;32.60;52252.28;5121756;28;20205;-81
2023/03/17 09:38:11;;;;;;;0.50;0.50;;;;;;;-145.69;33.22;52230.50;5120575;28;20185;-81
2023/03/17 09:40:46;;;;;;;0.63;0.50;;;;;;;-145.69;33.00;52218.63;5120747;28;20201;-81
2023/03/17 09:43:25;;;;;;;0.65;0.50;;;;;;;-145.69;32.24;52274.06;5101315;28;20624;-81
2023/03/17 09:45:52;;;;;;;0.57;0.50;;;;;;;-145.69;31.65;52218.63;5099762;28;20263;-81
2023/03/17 09:48:36;;;;;;;1.35;0.65;;;;;;;-145.69;31.32;52276.06;5098995;28;20201;-81
2023/03/17 09:51:07;;;;;;;3.90;0.82;;;;;;;-145.69;33.13;52206.75;5098656;28;20253;-81
2023/03/17 09:53:36;;;;;;;3.67;0.80;;;;;;;-145.69;31.16;52228.53;5101063;28;20198;-81
2023/03/17 09:56:08;;;;;;;1.95;0.60;;;;;;;-145.69;31.53;52206.75;5118323;28;20202;-81
2023/03/17 09:58:37;;;;;;;1.80;0.75;;;;;;;-145.69;33.97;52226.53;5119155;28;20205;-81
2023/03/17 10:01:05;;;;;;;2.95;0.70;;;;;;;-145.69;32.78;52222.59;5120342;28;20208;-81
2023/03/17 10:03:46;;;;;;;0.88;0.60;;;;;;;-145.69;31.97;52196.84;5129565;28;20205;-81
2023/03/17 10:06:31;;;;;;;2.67;0.80;;;;;;;-145.69;32.63;52212.69;5125163;28;20197;-81
2023/03/17 10:09:02;;;;;;;2.90;0.70;;;;;;;-145.69;31.63;52206.75;5120422;28;20530;-81
2023/03/17 10:11:39;;;;;;;0.80;0.50;;;;;;;-145.69;32.09;52179.03;5120404;28;20643;-81
2023/03/17 10:14:26;;;;;;;1.88;0.80;;;;;;;-145.69;32.82;52214.66;5120310;28;20262;-81
2023/03/17 10:17:00;;;;;;;1.13;0.82;;;;;;;-145.69;31.68;52184.97;5119210;28;20219;-81
2023/03/17 10:19:30;;;;;;;6.13;0.80;;;;;;;-145.69;31.71;52188.91;5119862;28;20201;-81
2023/03/17 10:22:05;;;;;;;0.95;0.60;;;;;;;-145.69;31.95;52179.03;5123502;28;20682;-81
2023/03/17 10:24:33;;;;;;;1.95;0.63;;;;;;;-145.69;31.42;52200.81;5120927;28;20201;-81
2023/03/17 10:27:03;;;;;;;0.80;0.60;;;;;;;-145.69;31.53;52139.41;5119709;28;20203;-82
2023/03/17 10:29:34;;;;;;;1.50;0.82;;;;;;;-145.69;30.46;52151.28;5118312;28;20221;-80
2023/03/17 10:32:01;;;;;;;1.50;0.50;;;;;;;-145.69;31.06;52143.38;5120836;28;20202;-82
2023/03/17 10:34:31;;;;;;;7.28;0.77;;;;;;;-145.69;30.24;52175.06;5121062;28;20201;-81
2023/03/17 10:37:05;;;;;;;0.63;0.57;;;;;;;-145.69;29.82;52127.53;5120317;28;20676;-81
2023/03/17 10:39:32;;;;;;;2.45;0.60;;;;;;;-145.69;30.81;52157.25;5119977;28;20201;-81
2023/03/17 10:42:10;;;;;;;2.20;0.63;;;;;;;-145.69;31.57;52133.47;5117633;28;20236;-82
2023/03/17 10:44:43;;;;;;;2.15;1.02;;;;;;;-145.69;30.22;52133.47;5118121;28;20235;-80
2023/03/17 10:47:36;;;;;;;1.42;0.65;;;;;;;-145.69;29.54;52167.13;5117078;28;20225;-82
2023/03/17 10:50:25;;;;;;;4.03;0.60;;;;;;;-145.69;31.22;52123.56;5090183;28;20225;-80
2023/03/17 10:53:00;;;;;;;0.93;0.50;;;;;;;-145.69;31.21;52123.56;5113230;28;20666;-80
2023/03/17 10:55:31;;;;;;;1.85;0.70;;;;;;;-145.69;31.77;52131.50;5115669;28;20197;-82
2023/03/17 10:58:04;;;;;;;2.80;0.75;;;;;;;-145.69;30.70;52151.28;5118613;28;20273;-81
2023/03/17 11:00:34;;;;;;;3.65;0.77;;;;;;;-145.69;33.79;52155.25;5123615;28;20806;-81
2023/03/17 11:03:09;;;;;;;3.85;1.17;;;;;;;-145.69;32.41;52117.63;5123626;28;20246;-82
2023/03/17 11:05:37;;;;;;;1.25;0.70;;;;;;;-145.69;32.19;52109.72;5120006;28;20439;-82
2023/03/17 11:08:11;;;;;;;1.98;1.00;;;;;;;-145.69;32.29;52131.50;5119188;28;20200;-82
2023/03/17 11:10:40;;;;;;;1.23;0.82;;;;;;;-145.69;33.20;52139.41;5119537;28;20234;-82
2023/03/17 11:13:07;;;;;;;2.00;0.93;;;;;;;-145.69;33.15;52149.31;5119002;28;20233;-82
2023/03/17 11:15:37;;;;;;;2.60;0.95;;;;;;;-145.69;32.26;52157.25;5118344;28;20287;-81
2023/03/17 11:18:12;;;;;;;0.95;0.60;;;;;;;-145.69;31.01;52155.25;5117920;28;20205;-82
2023/03/17 11:20:46;;;;;;;1.67;0.90;;;;;;;-145.69;31.48;52163.19;5116747;28;20304;-81
2023/03/17 11:23:34;;;;;;;0.88;0.50;;;;;;;-145.69;31.58;52129.50;5116183;28;20555;-81
2023/03/17 11:26:15;;;;;;;1.90;1.00;;;;;;;-145.69;34.72;52111.69;5088874;28;20667;-82